Guymon Municipal Airport
KGUY : now visible

Airfield :











YOU CAN JOIN US ON...

 
LOGIN :

Register | Disclaimer

   EN    FR    IT 

 









Legend :    VFR   Marginal VFR   IFR   Intensive IFR   Very Intensive IFR
Visi :
Ceiling :
>= 8 km
>= 3000ft
5 to 8 km
1000 to 3000 ft
1500m to 5 km
500 to 1000 ft
800 to 1500m
200 to 500 ft
< 800m
< 200 ft
Symbols :   Thunderstorms  Fog  Heavy snow  Heavy precipitations  Wind > 20 kt






- Airport Elevation : 3123 ft


KGUY - Guymon Municipal

CURRENT METAR :
  • 021253Z AUTO 24018G25KT 10SM CLR 09/M02 A2975 RMK AO2 PK WND 25027/1154 SLP059 T00891017

EXPIRED METARs :
  • 021153Z AUTO 24019KT 10SM CLR 08/M01 A2975 RMK AO2 PK WND 25030/1140 SLP057 T00781011 10100 20061 58007
  • 021053Z AUTO 25010KT 10SM CLR 07/M01 A2976 RMK AO2 SLP061 T00721011

TAF KGUY
Valid from the 02 at 12:00 until the 03 at 12:00 UTC


021135Z 0212/0312 23016G26KT P6SM FEW250 WS020/25045KT
FM021600 24025G35KT P6SM SCT250
FM022200 28020G30KT P6SM SCT250
FM030000 30014KT P6SM SCT250
FM030300 01017G27KT P6SM FEW250
FM031000 01006KT P6SM SCT250
KZKC FIR / North America



MET'MAP, your aeronautical weather chart ! - Copyright ORBIFLY December 2007 - Disclaimer

ORBIFLY MET'MAP TEAM :

Programming & Development : Alexandra Zaïnal
Original concept : Baudouin d'Aumeries
Technical & hardware support : Manuel Goepfert
Assistance : Marc-Olivier Méhu




SOURCES & CREDITS :

   NOAA       Earth
Advisory